^^
Datos históricos de la estación: Murcia-Puente Tocinos
Diario Informe para Agosto 30, 2019 Unidades:  Ingés    Métrico   Ambas
Diario Semanal Mensual Anual
  Máxima: Mínima: Promedio:
Temperatura: 60.1 °F 46.2 °F 51.8 °F
Punto de rocio: 47.1 °F 42.6 °F 45 °F
Humedad: 90% 58% 78%
Velocidad viento: 5.9mph 0mph 2.6mph
Racha viento: 10.4mph - -
Viento- - SSE
Presión: 30.5 in 30.4 in -
Precipitación: 0 in    
 
 
Tabla de datos para Agosto 30, 2019
Hora Temperatura Punto de rocio Presión Viento Velocidad viento Racha viento Humedad Intensidad lluvia(por hora) Nubes
00:04 50.7 °F 46.9 °F 30.4 in Calm     87% 0 in
00:09 50.7 °F 46.9 °F 30.4 in Calm     87% 0 in
00:14 50.7 °F 46.9 °F 30.4 in Calm     87% 0 in
00:19 50.7 °F 46.9 °F 30.4 in Calm     87% 0 in
00:24 50.5 °F 46.9 °F 30.4 in Calm     87% 0 in
00:29 50.5 °F 46.9 °F 30.4 in Calm     87% 0 in
00:34 50.7 °F 46.9 °F 30.4 in Calm     87% 0 in
00:39 50.7 °F 47.1 °F 30.4 in Calm   1.4 mph 87.1% 0 in
00:44 50.7 °F 47.1 °F 30.4 in Calm   1 mph 87.2% 0 in
00:49 50.7 °F 46.9 °F 30.4 in Calm     87% 0 in
00:54 50.7 °F 46.9 °F 30.4 in Calm     87% 0 in
00:59 50.7 °F 46.9 °F 30.4 in Calm     87% 0 in
01:04 50.7 °F 47.1 °F 30.4 in Calm     87.2% 0 in
01:09 50.5 °F 46.8 °F 30.4 in Calm     87% 0 in
01:14 50.5 °F 46.8 °F 30.4 in Calm     87% 0 in
01:19 50.4 °F 46.6 °F 30.4 in Calm     87% 0 in
01:24 50.2 °F 46.4 °F 30.4 in Calm     87% 0 in
01:29 49.8 °F 46.2 °F 30.4 in Calm     87% 0 in
01:34 49.6 °F 46.2 °F 30.4 in Calm     87.9% 0 in
01:39 49.6 °F 46.2 °F 30.4 in Calm     88% 0 in
01:44 49.5 °F 46.2 °F 30.4 in Calm   4.7 mph 88% 0 in
01:49 49.5 °F 46 °F 30.4 in Calm   5 mph 88% 0 in
01:54 49.3 °F 45.9 °F 30.4 in SE 1.8 mph 5 mph 88% 0 in
01:59 49.1 °F 45.7 °F 30.4 in SE 2.9 mph 5 mph 88% 0 in
02:04 48.9 °F 45.9 °F 30.4 in SE 2.5 mph 4.7 mph 89% 0 in
02:09 48.9 °F 45.9 °F 30.4 in SSE 2.4 mph 5 mph 89% 0 in
02:14 48.7 °F 45.7 °F 30.4 in SSE 2.8 mph 5.2 mph 89% 0 in
02:19 48.7 °F 45.7 °F 30.4 in SSE 3.1 mph 5 mph 89% 0 in
02:24 48.7 °F 45.7 °F 30.4 in Sur 3.1 mph 5 mph 89% 0 in
02:29 48.7 °F 45.7 °F 30.4 in SSE 3.1 mph 5.8 mph 89% 0 in
02:34 48.7 °F 45.7 °F 30.4 in SSE 3.1 mph 6 mph 89% 0 in
02:39 48.7 °F 45.7 °F 30.4 in SSE 3.1 mph 5 mph 89% 0 in
02:44 48.7 °F 45.7 °F 30.4 in SSE 2.7 mph 5 mph 89% 0 in
02:49 48.7 °F 45.7 °F 30.4 in SSE 2.4 mph 3.5 mph 89% 0 in
02:54 48.7 °F 45.7 °F 30.4 in SSE 2.2 mph 3.5 mph 89% 0 in
02:59 48.7 °F 45.5 °F 30.4 in SSE 2 mph 3.6 mph 89% 0 in
03:04 48.6 °F 45.5 °F 30.4 in SSE 2 mph 4.6 mph 89% 0 in
03:09 48.6 °F 45.5 °F 30.4 in SSE 2 mph 5 mph 89% 0 in
03:14 48.6 °F 45.5 °F 30.4 in SSE 2 mph 4 mph 89% 0 in
03:19 48.6 °F 45.5 °F 30.4 in SSE 2 mph 3.5 mph 89% 0 in
03:24 48.6 °F 45.5 °F 30.4 in SSE 1.9 mph 3.6 mph 89% 0 in
03:29 48.6 °F 45.5 °F 30.4 in SSE 1.8 mph 4 mph 89% 0 in
03:34 48.6 °F 45.5 °F 30.4 in SE 1.9 mph 3.6 mph 89% 0 in
03:39 48.6 °F 45.1 °F 30.4 in SE 2 mph 4 mph 88.1% 0 in
03:44 48.4 °F 45.1 °F 30.4 in SE 2.2 mph 4 mph 88.5% 0 in
03:49 48.2 °F 45 °F 30.4 in SSE 2.4 mph 5.2 mph 89% 0 in
03:54 48 °F 45 °F 30.4 in SSE 2.8 mph 5 mph 89% 0 in
03:59 48 °F 45 °F 30.4 in SE 3.1 mph 5.8 mph 89% 0 in
04:04 48 °F 45 °F 30.4 in SSE 3.1 mph 6 mph 89% 0 in
04:09 48 °F 45.1 °F 30.4 in SSE 3.1 mph 5.2 mph 89.6% 0 in
04:14 48 °F 45.1 °F 30.4 in SSE 3.1 mph 5 mph 90% 0 in
04:19 48 °F 45.1 °F 30.4 in Sur 3.1 mph 5 mph 90% 0 in
04:24 48 °F 45.1 °F 30.4 in SSO 3 mph 5.2 mph 90% 0 in
04:29 48.2 °F 45.1 °F 30.4 in SSO 2.9 mph 5.9 mph 89.2% 0 in
04:34 48.4 °F 45.3 °F 30.4 in Sur 3 mph 6 mph 89% 0 in
04:39 48.6 °F 45.1 °F 30.4 in Sur 3.1 mph 5 mph 88.2% 0 in
04:44 48.6 °F 45.1 °F 30.4 in SO 2.7 mph 5.2 mph 88% 0 in
04:49 48.6 °F 45 °F 30.4 in SO 2.4 mph 5.9 mph 87.2% 0 in
04:54 48.7 °F 44.8 °F 30.4 in OSO 3.1 mph 6.4 mph 86.4% 0 in
04:59 48.7 °F 44.8 °F 30.4 in SO 3.6 mph 7 mph 86% 0 in
05:04 48.7 °F 44.4 °F 30.4 in SO 4 mph 7 mph 85% 0 in
05:09 48.7 °F 44.4 °F 30.4 in SO 4.3 mph 7 mph 85% 0 in
05:14 48.9 °F 44.6 °F 30.4 in SO 4.1 mph 6.9 mph 85% 0 in
05:19 48.9 °F 44.2 °F 30.4 in SO 4 mph 8.1 mph 84% 0 in
05:24 48.9 °F 44.2 °F 30.4 in SO 4 mph 8 mph 84% 0 in
05:29 49.1 °F 44.4 °F 30.4 in SSO 4 mph 8.1 mph 83.9% 0 in
05:34 49.1 °F 44.2 °F 30.4 in SSO 4 mph 8 mph 83% 0 in
05:39 49.1 °F 44.2 °F 30.4 in SSO 4 mph 7 mph 83% 0 in
05:44 48.9 °F 44.1 °F 30.4 in SSO 3.5 mph 6 mph 83% 0 in
05:49 48.9 °F 44.1 °F 30.4 in SSO 3.1 mph 6.9 mph 83% 0 in
05:54 48.7 °F 43.9 °F 30.4 in SSO 3.7 mph 8.1 mph 83% 0 in
05:59 48.7 °F 44.1 °F 30.4 in SSO 4 mph 8 mph 83.6% 0 in
06:04 48.6 °F 43.9 °F 30.4 in SO 4 mph 7.4 mph 84% 0 in
06:09 48.6 °F 43.9 °F 30.4 in SSO 4 mph 7 mph 84% 0 in
06:14 48.6 °F 43.9 °F 30.4 in OSO 3.5 mph 7 mph 84% 0 in
06:19 48.4 °F 43.9 °F 30.4 in OSO 3.1 mph 6 mph 84% 0 in
06:24 48.4 °F 43.9 °F 30.4 in OSO 3.1 mph 6 mph 84% 0 in
06:29 48.4 °F 43.9 °F 30.4 in OSO 3.1 mph 5 mph 84% 0 in
06:34 48.4 °F 43.7 °F 30.4 in SO 3 mph 5 mph 84% 0 in
06:39 48.4 °F 43.9 °F 30.4 in SO 2.9 mph 5.2 mph 84% 0 in
06:44 48.2 °F 43.7 °F 30.4 in OSO 2.9 mph 5.8 mph 84% 0 in
06:49 48.2 °F 43.5 °F 30.4 in SO 2.9 mph 6.9 mph 84% 0 in
06:54 48 °F 43.5 °F 30.4 in SSO 3 mph 7 mph 84% 0 in
06:59 48 °F 43.3 °F 30.4 in SSO 3.1 mph 5.9 mph 84% 0 in
07:04 48 °F 43.3 °F 30.4 in SSO 3.4 mph 6 mph 84% 0 in
07:09 48 °F 43.3 °F 30.4 in SSO 3.6 mph 6 mph 84% 0 in
07:14 47.8 °F 43.3 °F 30.4 in Sur 3.3 mph 5.9 mph 84% 0 in
07:19 47.7 °F 43.2 °F 30.4 in Sur 3.1 mph 6.2 mph 84% 0 in
07:24 47.5 °F 43.2 °F 30.5 in Sur 3.7 mph 6 mph 84.9% 0 in
07:29 47.5 °F 43.2 °F 30.5 in Sur 4 mph 6.4 mph 85% 0 in
07:34 47.1 °F 42.8 °F 30.5 in Sur 4.2 mph 8.1 mph 85% 0 in
07:39 46.8 °F 42.8 °F 30.5 in Sur 4.3 mph 8.1 mph 85.8% 0 in
07:44 46.8 °F 42.8 °F 30.5 in Sur 4.5 mph 8 mph 86% 0 in
07:49 46.6 °F 42.6 °F 30.5 in Sur 4.7 mph 7.4 mph 86% 0 in
07:54 46.4 °F 42.8 °F 30.5 in SSE 4.5 mph 7 mph 86.9% 0 in
07:59 46.2 °F 42.6 °F 30.5 in Sur 4.3 mph 7 mph 87% 0 in
08:04 46.2 °F 42.6 °F 30.5 in Sur 4.6 mph 7 mph 87% 0 in
08:09 46.2 °F 42.6 °F 30.5 in Sur 4.7 mph 7.4 mph 87% 0 in
08:14 46.2 °F 42.6 °F 30.5 in Sur 4.5 mph 7 mph 87% 0 in
08:19 46.4 °F 42.8 °F 30.5 in SSO 4.3 mph 6 mph 87% 0 in
08:24 46.6 °F 43 °F 30.5 in Sur 3.9 mph 5 mph 87% 0 in
08:29 46.6 °F 42.8 °F 30.5 in SSE 3.6 mph 6.2 mph 86.4% 0 in
08:34 46.8 °F 42.8 °F 30.5 in Sur 3.3 mph 6 mph 86% 0 in
08:39 46.8 °F 42.8 °F 30.5 in Sur 3.1 mph 5.4 mph 86% 0 in
08:44 46.9 °F 43 °F 30.5 in Sur 3.1 mph 6 mph 86% 0 in
08:49 46.9 °F 43 °F 30.5 in SSE 3.1 mph 6 mph 86% 0 in
08:54 47.1 °F 43 °F 30.5 in SSE 3.1 mph 5.8 mph 85.3% 0 in
08:59 47.3 °F 43 °F 30.5 in Sur 3.1 mph 6 mph 85% 0 in
09:04 47.5 °F 43.2 °F 30.5 in Sur 3 mph 5 mph 85% 0 in
09:09 47.5 °F 43.2 °F 30.5 in SSO 2.9 mph 5 mph 85% 0 in
09:14 47.7 °F 43.3 °F 30.5 in SSO 2.6 mph 5.2 mph 85% 0 in
09:19 47.8 °F 43.2 °F 30.5 in SO 2.4 mph 5.2 mph 84.1% 0 in
09:24 48 °F 43.3 °F 30.5 in SO 2.9 mph 5 mph 84% 0 in
09:29 48 °F 43.3 °F 30.5 in SSO 3.1 mph 5.8 mph 83.6% 0 in
09:34 48.2 °F 43.3 °F 30.5 in SO 3 mph 6 mph 83% 0 in
09:39 48.4 °F 43.5 °F 30.5 in OSO 2.9 mph 8.1 mph 82.9% 0 in
09:44 48.4 °F 43.3 °F 30.5 in SSO 3.3 mph 8 mph 82.4% 0 in
09:49 48.6 °F 43.3 °F 30.5 in SSO 3.6 mph 6 mph 82.2% 0 in
09:54 48.6 °F 43.3 °F 30.5 in SO 2.6 mph 5 mph 82% 0 in
09:59 48.7 °F 43.3 °F 30.5 in OSO 2 mph 4.6 mph 82% 0 in
10:04 48.7 °F 43.5 °F 30.5 in OSO 2 mph 5 mph 82% 0 in
10:09 48.7 °F 43.5 °F 30.5 in Oeste 2 mph 5 mph 82% 0 in
10:14 48.9 °F 43.7 °F 30.5 in OSO 2 mph 5.4 mph 82% 0 in
10:19 49.1 °F 43.7 °F 30.5 in Sur 2 mph 6 mph 81.5% 0 in
10:24 49.5 °F 43.9 °F 30.5 in Sur 2.2 mph 5.9 mph 81.4% 0 in
10:29 49.5 °F 43.9 °F 30.5 in SSO 2.4 mph 6 mph 81% 0 in
10:34 49.6 °F 43.9 °F 30.5 in SSE 2.7 mph 5.2 mph 80.9% 0 in
10:39 49.6 °F 43.7 °F 30.5 in Sur 2.9 mph 5 mph 80.3% 0 in
10:44 49.8 °F 44.1 °F 30.5 in SSO 3 mph 5 mph 80.3% 0 in
10:49 50 °F 44.1 °F 30.5 in SO 3.1 mph 5 mph 80% 0 in
10:54 50.4 °F 44.2 °F 30.5 in OSO 3 mph 5.8 mph 79.6% 0 in
10:59 50.4 °F 44.2 °F 30.5 in OSO 2.9 mph 6 mph 79% 0 in
11:04 50.5 °F 44.2 °F 30.5 in OSO 3 mph 7.4 mph 78.8% 0 in
11:09 50.7 °F 44.1 °F 30.5 in OSO 3.1 mph 7 mph 78% 0 in
11:14 50.7 °F 44.2 °F 30.5 in OSO 3.9 mph 7.4 mph 78.4% 0 in
11:19 51.3 °F 44.6 °F 30.5 in OSO 4.3 mph 7 mph 78% 0 in
11:24 51.3 °F 44.6 °F 30.5 in OSO 4.5 mph 7.6 mph 78% 0 in
11:29 51.3 °F 44.4 °F 30.5 in OSO 4.7 mph 8.1 mph 77.5% 0 in
11:34 51.4 °F 44.8 °F 30.5 in OSO 4.5 mph 7 mph 78% 0 in
11:39 51.4 °F 44.8 °F 30.5 in OSO 4.3 mph 6 mph 78% 0 in
11:44 51.6 °F 44.6 °F 30.5 in SO 3.5 mph 5.9 mph 77.1% 0 in
11:49 52 °F 45 °F 30.5 in Sur 2.9 mph 6 mph 77% 0 in
11:54 52.2 °F 45 °F 30.5 in SO 3 mph 5 mph 76.3% 0 in
11:59 52.3 °F 45 °F 30.5 in OSO 3.1 mph 8.1 mph 76.2% 0 in
12:04 52.5 °F 45.1 °F 30.5 in OSO 3.7 mph 9.7 mph 75.9% 0 in
12:09 53.1 °F 45.3 °F 30.5 in Oeste 4 mph 10.4 mph 75% 0 in
12:14 53.2 °F 45.3 °F 30.5 in OSO 5.2 mph 10 mph 74.6% 0 in
12:19 53.4 °F 45.3 °F 30.5 in OSO 5.9 mph 9 mph 74% 0 in
12:24 53.8 °F 45.7 °F 30.5 in SO 5.6 mph 8.1 mph 73.8% 0 in
12:29 54.1 °F 45.7 °F 30.5 in OSO 5.4 mph 7 mph 73.1% 0 in
12:34 54.5 °F 45.7 °F 30.5 in SO 4.3 mph 7.4 mph 72.4% 0 in
12:39 54.9 °F 45.7 °F 30.5 in SSO 3.6 mph 9.2 mph 71.3% 0 in
12:44 54.9 °F 45.7 °F 30.5 in SSO 4.6 mph 9 mph 71% 0 in
12:49 54.9 °F 45.7 °F 30.5 in Sur 5.2 mph 9 mph 71.1% 0 in
12:54 55.2 °F 46 °F 30.5 in SO 4.7 mph 9.2 mph 71% 0 in
12:59 55.2 °F 46 °F 30.5 in OSO 4.3 mph 9 mph 71% 0 in
13:04 55.6 °F 46.2 °F 30.5 in SSO 3.5 mph 6 mph 71% 0 in
13:09 55.9 °F 46.2 °F 30.5 in SSO 3.1 mph 7.4 mph 69.5% 0 in
13:14 56.5 °F 46.2 °F 30.5 in SO 3.4 mph 8.1 mph 68.9% 0 in
13:19 56.3 °F 45.9 °F 30.5 in SO 3.6 mph 8.1 mph 68% 0 in
13:24 56.1 °F 45.9 °F 30.5 in SSO 3.9 mph 7 mph 68.3% 0 in
13:29 56.5 °F 46.2 °F 30.5 in SO 4 mph 6 mph 68.6% 0 in
13:34 56.8 °F 46.2 °F 30.5 in SO 3.2 mph 6 mph 67.7% 0 in
13:39 57.4 °F 46 °F 30.5 in SSO 2.4 mph 6.2 mph 65.8% 0 in
13:44 57.6 °F 45.9 °F 30.5 in Sur 2.4 mph 6 mph 65% 0 in
13:49 57.6 °F 45.9 °F 30.5 in SSO 2.4 mph 6.9 mph 65% 0 in
13:54 57.4 °F 46 °F 30.5 in Sur 3.2 mph 7 mph 65.9% 0 in
13:59 57 °F 45.9 °F 30.5 in Sur 3.6 mph 7 mph 66% 0 in
14:04 57.2 °F 46 °F 30.5 in SSE 3.9 mph 7 mph 66.4% 0 in
14:09 57.4 °F 46 °F 30.5 in SE 4 mph 7 mph 66% 0 in
14:14 57.4 °F 46 °F 30.4 in SE 3.8 mph 7.4 mph 65.6% 0 in
14:19 57.6 °F 46 °F 30.4 in ESE 3.6 mph 7 mph 65.3% 0 in
14:24 57.6 °F 45.9 °F 30.4 in ESE 3.6 mph 7 mph 65% 0 in
14:29 57.6 °F 45.9 °F 30.4 in SE 3.6 mph 7 mph 64.8% 0 in
14:34 57.6 °F 45.9 °F 30.4 in SSE 4 mph 6.9 mph 65% 0 in
14:39 57.6 °F 45.9 °F 30.4 in SSE 4.3 mph 7 mph 64.8% 0 in
14:44 57.6 °F 45.5 °F 30.4 in SSE 4.1 mph 6 mph 64% 0 in
14:49 57.6 °F 45.1 °F 30.4 in SSE 4 mph 6 mph 63.1% 0 in
14:54 57.9 °F 45 °F 30.4 in SSE 3 mph 5 mph 62% 0 in
14:59 58.5 °F 44.8 °F 30.4 in SSE 2.4 mph 5.2 mph 60.7% 0 in
15:04 58.6 °F 44.2 °F 30.4 in ONO 2.1 mph 5.2 mph 59% 0 in
15:09 58.6 °F 44.4 °F 30.4 in Oeste 2 mph 5 mph 59% 0 in
15:14 59 °F 44.4 °F 30.4 in SO 2 mph 3.6 mph 58.4% 0 in
15:19 59.4 °F 44.6 °F 30.4 in Sur 2 mph 4 mph 58.3% 0 in
15:24 59.4 °F 44.6 °F 30.4 in Este 1.9 mph 6.2 mph 58% 0 in
15:29 59.5 °F 45 °F 30.4 in SE 1.8 mph 6 mph 58.6% 0 in
15:34 59.7 °F 45 °F 30.4 in Este 1.9 mph 6.2 mph 58.2% 0 in
15:39 59.5 °F 45 °F 30.4 in Este 2 mph 6 mph 58.5% 0 in
15:44 59.4 °F 45 °F 30.4 in ESE 2.2 mph 5 mph 59% 0 in
15:49 59.5 °F 45.1 °F 30.4 in Este 2.4 mph 4.6 mph 59% 0 in
15:54 59.7 °F 45.3 °F 30.4 in NE 2.1 mph 5 mph 59% 0 in
15:59 59.7 °F 45.3 °F 30.4 in NO 1.8 mph 4 mph 59% 0 in
16:04 59.9 °F 45.3 °F 30.4 in ESE 1.8 mph 4.7 mph 58.6% 0 in
16:09 59.5 °F 45.1 °F 30.4 in ESE 1.8 mph 5 mph 59% 0 in
16:14 59.5 °F 45.5 °F 30.4 in ESE 2.1 mph 5 mph 59.8% 0 in
16:19 59.5 °F 45.7 °F 30.4 in Este 2.4 mph 4 mph 60% 0 in
16:24 59.7 °F 45.9 °F 30.4 in ESE 1.4 mph 2.3 mph 60% 0 in
16:29 60.1 °F 45.7 °F 30.4 in Calm   2.9 mph 59.1% 0 in
16:34 60.1 °F 45.7 °F 30.4 in Este 0.8 mph 3.6 mph 59% 0 in
16:39 60.1 °F 45.7 °F 30.4 in Este 1.4 mph 4 mph 59% 0 in
16:44 59.7 °F 45.5 °F 30.4 in ESE 1.6 mph 4.6 mph 59.1% 0 in
16:49 59.5 °F 45.5 °F 30.4 in Este 1.8 mph 5.2 mph 59.5% 0 in
16:54 59.4 °F 45.5 °F 30.4 in SE 2.2 mph 5 mph 60% 0 in
16:59 59.4 °F 45.5 °F 30.4 in Este 2.4 mph 6.9 mph 60% 0 in
17:04 59.2 °F 45.3 °F 30.4 in ENE 2.7 mph 7 mph 60% 0 in
17:09 59 °F 45.1 °F 30.4 in ENE 2.9 mph 5 mph 60% 0 in
17:14 58.8 °F 45.1 °F 30.4 in ENE 2.6 mph 5 mph 60.3% 0 in
17:19 58.8 °F 45.3 °F 30.4 in Este 2.4 mph 4.6 mph 61% 0 in
17:24 58.6 °F 45.1 °F 30.4 in ENE 2.2 mph 5 mph 61% 0 in
17:29 58.6 °F 45.1 °F 30.4 in NE 2 mph 4.6 mph 61% 0 in
17:34 58.6 °F 45.7 °F 30.4 in NE 2.2 mph 5 mph 61.9% 0 in
17:39 58.5 °F 45.5 °F 30.4 in NE 2.4 mph 5.2 mph 62% 0 in
17:44 58.5 °F 45.5 °F 30.4 in NE 2.8 mph 5.9 mph 62.1% 0 in
17:49 58.3 °F 45.7 °F 30.4 in NE 3.1 mph 6 mph 63% 0 in
17:54 58.1 °F 45.7 °F 30.4 in ENE 3.1 mph 6 mph 63% 0 in
17:59 57.9 °F 45.7 °F 30.4 in ENE 3.1 mph 6 mph 63.6% 0 in
18:04 57.9 °F 45.9 °F 30.4 in ESE 3 mph 5.2 mph 64% 0 in
18:09 57.7 °F 46 °F 30.4 in SE 2.9 mph 5 mph 65% 0 in
18:14 57.6 °F 46.4 °F 30.4 in SE 2.9 mph 5.8 mph 66.2% 0 in
18:19 57.6 °F 46.6 °F 30.4 in SE 2.9 mph 6 mph 67% 0 in
18:24 57.2 °F 46.6 °F 30.4 in SE 3 mph 6 mph 67.8% 0 in
18:29 56.8 °F 46.4 °F 30.4 in ESE 3.1 mph 6 mph 68% 0 in
18:34 56.7 °F 46.4 °F 30.4 in Este 3.1 mph 5 mph 68.6% 0 in
18:39 56.1 °F 46 °F 30.4 in Este 3.1 mph 5.2 mph 69% 0 in
18:44 55.8 °F 46 °F 30.4 in ESE 3.1 mph 5.2 mph 69.9% 0 in
18:49 55.6 °F 46 °F 30.4 in ESE 3.1 mph 5 mph 70.3% 0 in
18:54 55.2 °F 46 °F 30.4 in Este 3.1 mph 5.9 mph 71% 0 in
18:59 55 °F 45.9 °F 30.4 in Este 3.1 mph 7.6 mph 71% 0 in
19:04 54.9 °F 45.9 °F 30.4 in Este 3.5 mph 8.1 mph 71.4% 0 in
19:09 54.7 °F 45.7 °F 30.4 in Este 4 mph 6 mph 72% 0 in
19:14 54.3 °F 45.5 °F 30.4 in NE 3.8 mph 6 mph 72% 0 in
19:19 54.1 °F 45.5 °F 30.4 in NE 3.6 mph 5 mph 72.6% 0 in
19:24 54 °F 45.5 °F 30.5 in NE 3.2 mph 5.2 mph 73% 0 in
19:29 53.6 °F 45.5 °F 30.5 in NE 2.9 mph 5 mph 73.8% 0 in
19:34 53.4 °F 45.5 °F 30.5 in NE 2.9 mph 5.2 mph 74.3% 0 in
19:39 53.2 °F 45.5 °F 30.5 in NNE 2.9 mph 5 mph 75% 0 in
19:44 53.2 °F 45.7 °F 30.5 in NE 2.9 mph 5 mph 75.4% 0 in
19:49 53.1 °F 45.7 °F 30.5 in ENE 2.9 mph 5 mph 76% 0 in
19:54 53.1 °F 45.7 °F 30.5 in North 2.6 mph 5 mph 76.1% 0 in
19:59 52.5 °F 45.7 °F 30.5 in NNE 2.4 mph 5 mph 77.1% 0 in
20:04 52.5 °F 45.9 °F 30.5 in NE 1.7 mph 2.4 mph 78% 0 in
20:09 52.3 °F 45.7 °F 30.5 in North 1.4 mph 3.6 mph 78% 0 in
20:14 52 °F 45.7 °F 30.4 in North 1.7 mph 4 mph 78.6% 0 in
20:19 52 °F 45.7 °F 30.4 in NNE 1.8 mph 4.6 mph 79.1% 0 in
20:24 51.6 °F 45.7 °F 30.5 in North 1.9 mph 5 mph 80% 0 in
20:29 51.6 °F 45.7 °F 30.5 in NNO 2 mph 5 mph 80% 0 in
20:34 51.4 °F 45.5 °F 30.5 in North 2.2 mph 4 mph 80% 0 in
20:39 51.3 °F 45.5 °F 30.5 in NNE 2.4 mph 5 mph 80.8% 0 in
20:44 51.3 °F 45.7 °F 30.4 in NNE 2.6 mph 5 mph 81% 0 in
20:49 51.3 °F 45.7 °F 30.4 in NNE 2.9 mph 5 mph 81% 0 in
20:54 51.3 °F 45.7 °F 30.5 in NNE 2.6 mph 5 mph 81.4% 0 in
20:59 51.1 °F 45.9 °F 30.5 in NNE 2.4 mph 5 mph 82% 0 in
21:04 51.1 °F 45.9 °F 30.5 in NNE 2 mph 5 mph 82% 0 in
21:09 51.1 °F 45.9 °F 30.5 in NNE 1.8 mph 2.4 mph 82% 0 in
21:14 50.9 °F 45.7 °F 30.4 in NNE 1.6 mph 2.9 mph 82% 0 in
21:19 50.9 °F 45.7 °F 30.4 in NNE 1.4 mph 3 mph 82.3% 0 in
21:24 50.7 °F 45.7 °F 30.5 in NNE 0.6 mph 3 mph 83% 0 in
21:29 50.7 °F 45.7 °F 30.5 in Calm   3.1 mph 82.8% 0 in
21:34 50.5 °F 45.3 °F 30.5 in Oeste 0.9 mph 3.5 mph 82.3% 0 in
21:39 50.4 °F 45.5 °F 30.5 in Oeste 1.4 mph 2 mph 83% 0 in
21:44 50.4 °F 45.3 °F 30.5 in Oeste 0.6 mph 2.4 mph 83% 0 in
21:49 50.2 °F 45.3 °F 30.5 in Calm   2.9 mph 83.5% 0 in
21:54 50.2 °F 45.5 °F 30.5 in Oeste 1.1 mph 3.6 mph 84% 0 in
21:59 50.2 °F 45.3 °F 30.5 in Sur 1.8 mph 4.6 mph 83.6% 0 in
22:04 50.2 °F 45.5 °F 30.5 in Sur 2.2 mph 5 mph 84% 0 in
22:09 50.2 °F 45.5 °F 30.5 in Sur 2.4 mph 4.6 mph 84% 0 in
22:14 50.2 °F 45.5 °F 30.5 in Sur 2.4 mph 5 mph 84% 0 in
22:19 50.2 °F 45.5 °F 30.5 in Sur 2.4 mph 5.2 mph 84% 0 in
22:24 50.2 °F 45.5 °F 30.5 in SSE 2.7 mph 5 mph 84% 0 in
22:29 50.2 °F 45.5 °F 30.5 in SSE 3.1 mph 5 mph 84% 0 in
22:34 50.2 °F 45.5 °F 30.5 in SSE 2.7 mph 5 mph 83.9% 0 in
22:39 50 °F 45 °F 30.5 in SSE 2.4 mph 4 mph 83% 0 in
22:44 49.8 °F 45 °F 30.5 in SSE 2.1 mph 3 mph 83% 0 in
22:49 49.6 °F 44.8 °F 30.5 in SSE 1.8 mph 2.4 mph 83% 0 in
22:54 49.6 °F 44.6 °F 30.5 in SSE 1.6 mph 2.4 mph 83.1% 0 in
22:59 49.5 °F 44.6 °F 30.5 in SSE 1.4 mph 2 mph 83.1% 0 in
23:04 49.3 °F 44.4 °F 30.5 in SSE 0.5 mph 2.4 mph 83% 0 in
23:09 49.1 °F 44.2 °F 30.5 in Calm   2.4 mph 83.4% 0 in
23:14 48.7 °F 44.1 °F 30.5 in Calm   2.3 mph 84% 0 in
23:19 48.6 °F 44.1 °F 30.5 in Calm   3.5 mph 84.4% 0 in
23:24 48.4 °F 44.1 °F 30.5 in ONO 0.9 mph 3.5 mph 85% 0 in
23:29 48.4 °F 44.2 °F 30.5 in ONO 1.4 mph 2 mph 85.5% 0 in
23:34 48.4 °F 44.4 °F 30.5 in ONO 0.5 mph 2.9 mph 86% 0 in
23:39 48.4 °F 44.4 °F 30.5 in Calm   3 mph 86% 0 in
23:44 48.4 °F 44.4 °F 30.5 in Calm   2 mph 86% 0 in
23:49 48.2 °F 44.2 °F 30.5 in Calm   1.4 mph 86% 0 in
23:54 48 °F 44.1 °F 30.5 in Calm   1 mph 86% 0 in
23:59 48 °F 44.1 °F 30.5 in Calm     86% 0 in
Murcia-Puente Tocinos, Espa?a
Compliments of Weather Underground - 3 mb

La estación de MeteoMurcia.com, publica sus datos en los siguientes proyectos:

Weather Underground PWS IMURCIAP2 Meteoclimatic www.awekas.at

W3Counter
Web Analytics